createdAt,value
2023-09-20T00:02:01.412Z,92111.72
2023-09-20T00:04:30.675Z,92112.44
2023-09-20T00:06:58.019Z,92113.91
2023-09-20T00:09:24.914Z,92115.38
2023-09-20T00:11:51.468Z,92118.31
2023-09-20T00:14:18.128Z,92111.28
2023-09-20T00:16:44.784Z,92111.41
2023-09-20T00:19:11.384Z,92114.91
2023-09-20T00:21:37.925Z,92124.03
2023-09-20T00:24:07.622Z,92122.69
2023-09-20T00:26:35.304Z,92119.91
2023-09-20T00:29:06.797Z,92116.41
2023-09-20T00:31:34.143Z,92113.63
2023-09-20T00:34:04.553Z,92118.44
2023-09-20T00:36:32.164Z,92114.19
2023-09-20T00:38:59.470Z,92114.78
2023-09-20T00:41:26.355Z,92111.28
2023-09-20T00:43:53.785Z,92109.81
2023-09-20T00:46:25.092Z,92108.34
2023-09-20T00:48:52.643Z,92113.19
2023-09-20T00:51:23.294Z,92119.50
2023-09-20T00:53:54.232Z,92118.75
2023-09-20T00:56:22.428Z,92112.44
2023-09-20T00:58:52.506Z,92105.41
2023-09-20T01:01:20.163Z,92099.84
2023-09-20T01:03:48.497Z,92098.38
2023-09-20T01:06:21.122Z,92099.84
2023-09-20T01:08:50.557Z,92102.63
2023-09-20T01:11:17.315Z,92098.38
2023-09-20T01:13:46.018Z,92103.94
2023-09-20T01:16:15.458Z,92098.38
2023-09-20T01:18:45.763Z,92096.19
2023-09-20T01:21:15.505Z,92096.94
2023-09-20T01:23:44.152Z,92094.72
2023-09-20T01:26:15.248Z,92094.00
2023-09-20T01:28:42.274Z,92096.03
2023-09-20T01:31:09.377Z,92097.38
2023-09-20T01:33:36.882Z,92097.38
2023-09-20T01:36:06.525Z,92097.38
2023-09-20T01:38:33.927Z,92096.63
2023-09-20T01:41:00.637Z,92092.53
2023-09-20T01:43:27.217Z,92096.03
2023-09-20T01:45:54.775Z,92093.25
2023-09-20T01:48:22.019Z,92099.56
2023-09-20T01:50:50.295Z,92091.34
2023-09-20T01:53:16.954Z,92099.84
2023-09-20T01:55:44.154Z,92094.28
2023-09-20T01:58:14.118Z,92096.34
2023-09-20T02:00:42.104Z,92090.16
2023-09-20T02:03:12.748Z,92083.16
2023-09-20T02:05:39.503Z,92082.41
2023-09-20T02:08:07.777Z,92086.53
2023-09-20T02:10:40.617Z,92085.78
2023-09-20T02:13:08.094Z,92080.81
2023-09-20T02:15:41.360Z,92082.84
2023-09-20T02:18:10.476Z,92076.56
2023-09-20T02:20:39.200Z,92081.41
2023-09-20T02:23:08.086Z,92082.72
2023-09-20T02:25:34.833Z,92084.03
2023-09-20T02:28:02.521Z,92084.63
2023-09-20T02:30:29.929Z,92086.69
2023-09-20T02:32:59.604Z,92083.16
2023-09-20T02:35:27.969Z,92085.94
2023-09-20T02:37:55.799Z,92079.66
2023-09-20T02:40:28.956Z,92079.66
2023-09-20T02:43:02.043Z,92073.38
2023-09-20T02:45:30.483Z,92071.88
2023-09-20T02:47:58.975Z,92071.16
2023-09-20T02:50:26.932Z,92063.38
2023-09-20T02:52:54.196Z,92053.00
2023-09-20T02:55:22.495Z,92065.47
2023-09-20T02:57:53.585Z,92059.88
2023-09-20T03:00:23.147Z,92056.38
2023-09-20T03:02:51.678Z,92068.25
2023-09-20T03:05:26.020Z,92061.19
2023-09-20T03:07:54.477Z,92061.19
2023-09-20T03:10:22.660Z,92062.53
2023-09-20T03:12:55.810Z,92070.88
2023-09-20T03:15:24.936Z,92058.25
2023-09-20T03:17:54.046Z,92062.53
2023-09-20T03:20:24.613Z,92061.19
2023-09-20T03:23:05.167Z,92061.19
2023-09-20T03:25:38.851Z,92057.09
2023-09-20T03:28:09.079Z,92064.88
2023-09-20T03:30:38.767Z,92064.13
2023-09-20T03:33:06.919Z,92065.59
2023-09-20T03:35:35.272Z,92064.13
2023-09-20T03:38:03.187Z,92062.09
2023-09-20T03:40:30.073Z,92062.69
2023-09-20T03:42:56.742Z,92052.84
2023-09-20T03:45:25.243Z,92055.63
2023-09-20T03:47:58.202Z,92055.47
2023-09-20T03:50:25.371Z,92052.00
2023-09-20T03:52:53.398Z,92056.81
2023-09-20T03:55:20.896Z,92051.25
2023-09-20T03:57:47.436Z,92061.66
2023-09-20T04:00:25.987Z,92055.38
2023-09-20T04:02:54.829Z,92055.38
2023-09-20T04:05:39.181Z,92058.00
2023-09-20T04:08:09.527Z,92059.31
2023-09-20T04:10:36.558Z,92055.81
2023-09-20T04:13:04.193Z,92060.63
2023-09-20T04:15:30.833Z,92052.88
2023-09-20T04:17:57.735Z,92064.72
2023-09-20T04:20:24.854Z,92057.72
2023-09-20T04:22:51.566Z,92057.72
2023-09-20T04:25:19.085Z,92053.47
2023-09-20T04:27:47.848Z,92056.25
2023-09-20T04:30:15.570Z,92065.91
2023-09-20T04:32:42.579Z,92061.81
2023-09-20T04:35:09.434Z,92058.91
2023-09-20T04:37:37.218Z,92060.34
2023-09-20T04:40:04.935Z,92058.91
2023-09-20T04:42:34.763Z,92057.41
2023-09-20T04:45:01.739Z,92061.53
2023-09-20T04:47:30.047Z,92055.97
2023-09-20T04:49:56.686Z,92065.63
2023-09-20T04:52:23.430Z,92055.97
2023-09-20T04:54:50.508Z,92055.97
2023-09-20T04:57:17.027Z,92048.94
2023-09-20T04:59:43.730Z,92053.94
2023-09-20T05:02:12.095Z,92058.91
2023-09-20T05:04:39.730Z,92060.19
2023-09-20T05:07:08.975Z,92058.91
2023-09-20T05:09:36.967Z,92058.91
2023-09-20T05:12:04.657Z,92054.78
2023-09-20T05:14:31.680Z,92045.13
2023-09-20T05:16:58.341Z,92049.22
2023-09-20T05:19:24.897Z,92061.81
2023-09-20T05:21:51.884Z,92067.41
2023-09-20T05:24:18.526Z,92074.25
2023-09-20T05:26:45.324Z,92077.78
2023-09-20T05:29:12.072Z,92083.34
2023-09-20T05:31:38.796Z,92080.56
2023-09-20T05:34:06.668Z,92074.25
2023-09-20T05:36:34.512Z,92077.03
2023-09-20T05:39:01.157Z,92075.59
2023-09-20T05:41:29.362Z,92074.13
2023-09-20T05:43:56.250Z,92068.56
2023-09-20T05:46:25.823Z,92072.66
2023-09-20T05:48:53.530Z,92078.22
2023-09-20T05:51:21.614Z,92072.66
2023-09-20T05:53:52.380Z,92072.66
2023-09-20T05:56:20.904Z,92061.53
2023-09-20T05:58:47.879Z,92065.63
2023-09-20T06:01:17.072Z,92065.63
2023-09-20T06:03:44.393Z,92071.19
2023-09-20T06:06:11.041Z,92058.59
2023-09-20T06:08:37.892Z,92058.59
2023-09-20T06:11:07.468Z,92054.50
2023-09-20T06:13:37.397Z,92061.38
2023-09-20T06:16:07.111Z,92057.13
2023-09-20T06:18:34.839Z,92057.13
2023-09-20T06:21:01.841Z,92057.88
2023-09-20T06:23:28.478Z,92051.56
2023-09-20T06:25:55.164Z,92054.34
2023-09-20T06:28:21.902Z,92048.66
2023-09-20T06:30:48.891Z,92044.53
2023-09-20T06:33:16.109Z,92045.28
2023-09-20T06:35:44.612Z,92048.78
2023-09-20T06:38:11.718Z,92040.44
2023-09-20T06:40:41.321Z,92035.75
2023-09-20T06:43:08.913Z,92033.72
2023-09-20T06:45:52.321Z,92024.03
2023-09-20T06:48:26.634Z,92018.47
2023-09-20T06:50:55.325Z,92014.38
2023-09-20T06:53:24.812Z,92015.81
2023-09-20T06:55:51.833Z,92015.81
2023-09-20T06:58:20.904Z,92008.06
2023-09-20T07:00:48.416Z,92011.44
2023-09-20T07:03:15.511Z,92005.13
2023-09-20T07:05:42.585Z,91993.28
2023-09-20T07:08:09.784Z,91990.63
2023-09-20T07:10:38.092Z,91992.81
2023-09-20T07:13:07.280Z,91984.63
2023-09-20T07:15:36.326Z,91989.72
2023-09-20T07:18:13.057Z,91980.22
2023-09-20T07:20:42.378Z,91977.69
2023-09-20T07:23:14.623Z,91975.06
2023-09-20T07:25:41.840Z,91966.84
2023-09-20T07:28:09.109Z,91967.13
2023-09-20T07:30:41.782Z,91958.91
2023-09-20T07:33:13.498Z,91970.75
2023-09-20T07:35:48.684Z,91969.00
2023-09-20T07:38:27.526Z,91962.09
2023-09-20T07:41:15.399Z,91963.13
2023-09-20T07:43:49.109Z,91966.75
2023-09-20T07:46:16.703Z,91968.97
2023-09-20T07:48:51.295Z,91962.78
2023-09-20T07:51:24.521Z,91962.94
2023-09-20T07:53:55.172Z,91967.31
2023-09-20T07:56:23.886Z,91957.63
2023-09-20T07:58:53.081Z,91952.19
2023-09-20T08:01:20.986Z,91952.31
2023-09-20T08:03:56.110Z,91954.50
2023-09-20T08:06:29.231Z,91952.59
2023-09-20T08:08:57.410Z,91948.47
2023-09-20T08:11:24.388Z,91948.03
2023-09-20T08:13:52.640Z,91950.94
2023-09-20T08:16:20.287Z,91953.13
2023-09-20T08:19:25.032Z,91937.91
2023-09-20T08:21:51.900Z,91935.25
2023-09-20T08:24:37.397Z,91921.41
2023-09-20T08:27:22.726Z,91924.34
2023-09-20T08:30:07.791Z,91916.88
2023-09-20T08:32:53.056Z,91921.69
2023-09-20T08:35:38.560Z,91917.59
2023-09-20T08:38:23.834Z,91911.88
2023-09-20T08:41:09.440Z,91904.97
2023-09-20T08:43:54.903Z,91900.75
2023-09-20T08:46:42.310Z,91891.66
2023-09-20T08:49:27.522Z,91893.69
2023-09-20T08:52:32.636Z,91885.34
2023-09-20T08:55:19.136Z,91882.56
2023-09-20T08:58:04.492Z,91874.19
2023-09-20T09:00:35.628Z,91872.03
2023-09-20T09:03:05.727Z,91869.84
2023-09-20T09:05:34.265Z,91873.97
2023-09-20T09:08:04.926Z,91866.91
2023-09-20T09:10:31.812Z,91864.72
2023-09-20T09:12:58.581Z,91859.75
2023-09-20T09:15:28.063Z,91856.97
2023-09-20T09:17:55.698Z,91838.78
2023-09-20T09:20:22.497Z,91838.66
2023-09-20T09:22:53.630Z,91833.09
2023-09-20T09:25:25.902Z,91830.28
2023-09-20T09:27:52.926Z,91827.41
2023-09-20T09:30:19.612Z,91809.22
2023-09-20T09:32:49.021Z,91809.22
2023-09-20T09:35:19.069Z,91806.31
2023-09-20T09:37:48.598Z,91802.19
2023-09-20T09:40:16.067Z,91799.41
2023-09-20T09:42:44.716Z,91793.84
2023-09-20T09:45:11.386Z,91788.41
2023-09-20T09:47:38.777Z,91785.72
2023-09-20T09:50:07.366Z,91787.19
2023-09-20T09:52:37.898Z,91776.06
2023-09-20T09:55:05.510Z,91771.94
2023-09-20T09:57:32.166Z,91768.44
2023-09-20T09:59:58.902Z,91767.84
2023-09-20T10:02:33.100Z,91755.97
2023-09-20T10:05:03.839Z,91762.28
2023-09-20T10:07:37.207Z,91760.78
2023-09-20T10:10:10.128Z,91755.22
2023-09-20T10:12:39.625Z,91746.88
2023-09-20T10:15:12.516Z,91741.16
2023-09-20T10:17:56.491Z,91742.63
2023-09-20T10:20:24.241Z,91739.72
2023-09-20T10:22:53.813Z,91736.94
2023-09-20T10:25:31.574Z,91733.41
2023-09-20T10:27:58.205Z,91730.50
2023-09-20T10:30:25.110Z,91727.13
2023-09-20T10:33:00.902Z,91727.13
2023-09-20T10:35:31.494Z,91721.56
2023-09-20T10:38:10.144Z,91718.03
2023-09-20T10:41:04.683Z,91709.69
2023-09-20T10:43:36.992Z,91704.84
2023-09-20T10:46:12.162Z,91697.22
2023-09-20T10:48:57.690Z,91702.78
2023-09-20T10:51:50.279Z,91695.16
2023-09-20T10:54:30.753Z,91688.38
2023-09-20T10:57:04.496Z,91686.94
2023-09-20T10:59:32.557Z,91682.09
2023-09-20T11:02:18.886Z,91682.81
2023-09-20T11:04:47.815Z,91677.97
2023-09-20T11:07:15.773Z,91685.72
2023-09-20T11:09:44.087Z,91678.72
2023-09-20T11:12:12.906Z,91668.31
2023-09-20T11:14:44.262Z,91671.19
2023-09-20T11:17:16.006Z,91667.91
2023-09-20T11:19:43.235Z,91658.25
2023-09-20T11:22:09.887Z,91652.81
2023-09-20T11:24:38.527Z,91638.28
2023-09-20T11:27:05.480Z,91637.66
2023-09-20T11:29:35.887Z,91633.66
2023-09-20T11:32:02.505Z,91624.00
2023-09-20T11:34:45.401Z,91622.81
2023-09-20T11:37:15.337Z,91631.28
2023-09-20T11:39:44.668Z,91624.38
2023-09-20T11:42:12.014Z,91617.47
2023-09-20T11:44:38.722Z,91613.34
2023-09-20T11:47:06.903Z,91618.91
2023-09-20T11:49:34.138Z,91609.25
2023-09-20T11:52:02.296Z,91605.13
2023-09-20T11:54:35.483Z,91594.72
2023-09-20T11:57:04.058Z,91609.47
2023-09-20T11:59:30.708Z,91607.41
2023-09-20T12:01:57.328Z,91597.13
2023-09-20T12:04:24.223Z,91593.00
2023-09-20T12:06:52.523Z,91581.13
2023-09-20T12:09:19.781Z,91577.75
2023-09-20T12:11:46.486Z,91579.19
2023-09-20T12:14:15.040Z,91568.03
2023-09-20T12:16:42.793Z,91574.97
2023-09-20T12:19:09.721Z,91574.34
2023-09-20T12:21:36.410Z,91563.91
2023-09-20T12:24:03.103Z,91564.63
2023-09-20T12:26:29.904Z,91559.06
2023-09-20T12:28:57.157Z,91551.44
2023-09-20T12:31:25.110Z,91558.34
2023-09-20T12:33:53.728Z,91556.88
2023-09-20T12:36:25.082Z,91549.88
2023-09-20T12:38:52.100Z,91551.31
2023-09-20T12:41:19.642Z,91542.84
2023-09-20T12:43:46.079Z,91545.00
2023-09-20T12:46:12.885Z,91545.75
2023-09-20T12:48:40.076Z,91540.91
2023-09-20T12:51:09.133Z,91540.91
2023-09-20T12:53:35.959Z,91541.59
2023-09-20T12:56:05.626Z,91539.69
2023-09-20T12:58:32.747Z,91541.84
2023-09-20T13:00:59.307Z,91546.22
2023-09-20T13:03:30.167Z,91542.09
2023-09-20T13:05:56.981Z,91540.88
2023-09-20T13:08:26.495Z,91550.72
2023-09-20T13:10:54.759Z,91552.28
2023-09-20T13:13:24.880Z,91543.28
2023-09-20T13:15:51.686Z,91537.84
2023-09-20T13:18:18.362Z,91539.91
2023-09-20T13:20:45.099Z,91541.34
2023-09-20T13:23:12.831Z,91526.06
2023-09-20T13:25:42.878Z,91531.66
2023-09-20T13:28:10.129Z,91526.06
2023-09-20T13:30:38.665Z,91523.75
2023-09-20T13:33:06.849Z,91521.66
2023-09-20T13:35:36.064Z,91516.66
2023-09-20T13:38:04.403Z,91509.25
2023-09-20T13:40:31.880Z,91517.00
2023-09-20T13:42:59.011Z,91514.09
2023-09-20T13:45:27.980Z,91509.75
2023-09-20T13:47:55.166Z,91499.91
2023-09-20T13:50:22.843Z,91499.72
2023-09-20T13:52:49.814Z,91494.00
2023-09-20T13:55:25.947Z,91495.22
2023-09-20T13:57:59.811Z,91490.88
2023-09-20T14:00:28.909Z,91487.97
2023-09-20T14:02:56.214Z,91489.94
2023-09-20T14:05:24.363Z,91487.03
2023-09-20T14:07:56.763Z,91483.38
2023-09-20T14:10:32.694Z,91479.16
2023-09-20T14:12:59.684Z,91479.03
2023-09-20T14:15:27.094Z,91474.91
2023-09-20T14:17:55.112Z,91466.78
2023-09-20T14:20:24.999Z,91468.31
2023-09-20T14:22:56.689Z,91474.03
2023-09-20T14:25:25.481Z,91472.59
2023-09-20T14:27:53.887Z,91472.59
2023-09-20T14:30:21.379Z,91471.13
2023-09-20T14:32:50.002Z,91462.75
2023-09-20T14:35:17.333Z,91464.22
2023-09-20T14:37:46.215Z,91462.88
2023-09-20T14:40:23.823Z,91458.66
2023-09-20T14:42:53.140Z,91458.66
2023-09-20T14:45:23.894Z,91471.22
2023-09-20T14:47:51.992Z,91471.22
2023-09-20T14:50:20.541Z,91465.66
2023-09-20T14:52:48.433Z,91458.66
2023-09-20T14:55:17.314Z,91460.09
2023-09-20T14:57:44.159Z,91464.22
2023-09-20T15:00:19.217Z,91458.66
2023-09-20T15:02:47.514Z,91461.31
2023-09-20T15:05:19.506Z,91454.28
2023-09-20T15:07:49.698Z,91451.41
2023-09-20T15:10:18.030Z,91440.25
2023-09-20T15:12:49.503Z,91440.81
2023-09-20T15:15:16.656Z,91438.66
2023-09-20T15:17:44.605Z,91431.03
2023-09-20T15:20:17.532Z,91427.38
2023-09-20T15:22:47.543Z,91434.31
2023-09-20T15:25:16.177Z,91435.66
2023-09-20T15:27:45.581Z,91434.19
2023-09-20T15:30:14.090Z,91432.75
2023-09-20T15:32:41.477Z,91424.28
2023-09-20T15:35:11.645Z,91439.53
2023-09-20T15:37:45.318Z,91436.63
2023-09-20T15:40:17.651Z,91434.47
2023-09-20T15:42:47.446Z,91442.00
2023-09-20T15:45:18.118Z,91436.44
2023-09-20T15:47:45.429Z,91439.09
2023-09-20T15:50:12.160Z,91436.19
2023-09-20T15:52:41.166Z,91438.84
2023-09-20T15:55:16.169Z,91435.94
2023-09-20T15:57:43.938Z,91428.94
2023-09-20T16:00:16.225Z,91437.41
2023-09-20T16:02:44.178Z,91424.09
2023-09-20T16:05:11.373Z,91424.81
2023-09-20T16:07:41.381Z,91426.28
2023-09-20T16:10:14.595Z,91425.53
2023-09-20T16:12:44.315Z,91424.81
2023-09-20T16:15:12.928Z,91426.97
2023-09-20T16:17:39.829Z,91426.28
2023-09-20T16:20:07.844Z,91430.38
2023-09-20T16:22:35.009Z,91430.38
2023-09-20T16:25:02.980Z,91429.66
2023-09-20T16:27:30.245Z,91423.38
2023-09-20T16:29:56.922Z,91433.03
2023-09-20T16:32:23.628Z,91426.75
2023-09-20T16:34:50.415Z,91419.00
2023-09-20T16:37:17.030Z,91416.13
2023-09-20T16:39:43.575Z,91420.22
2023-09-20T16:42:10.995Z,91422.28
2023-09-20T16:44:38.452Z,91419.41
2023-09-20T16:47:05.928Z,91420.09
2023-09-20T16:49:32.465Z,91426.28
2023-09-20T16:52:00.518Z,91429.69
2023-09-20T16:54:27.296Z,91428.25
2023-09-20T16:56:53.997Z,91424.00
2023-09-20T16:59:20.571Z,91425.34
2023-09-20T17:01:47.117Z,91424.59
2023-09-20T17:04:13.875Z,91423.88
2023-09-20T17:06:40.458Z,91426.66
2023-09-20T17:09:07.207Z,91426.53
2023-09-20T17:11:33.883Z,91439.16
2023-09-20T17:14:01.166Z,91436.97
2023-09-20T17:16:27.816Z,91427.78
2023-09-20T17:18:54.479Z,91429.25
2023-09-20T17:21:21.706Z,91434.81
2023-09-20T17:23:48.434Z,91427.78
2023-09-20T17:26:15.098Z,91423.53
2023-09-20T17:28:41.717Z,91436.72
2023-09-20T17:31:12.047Z,91422.06
2023-09-20T17:33:41.286Z,91437.47
2023-09-20T17:36:12.737Z,91438.75
2023-09-20T17:38:43.947Z,91438.91
2023-09-20T17:41:19.600Z,91449.44
2023-09-20T17:43:50.010Z,91450.19
2023-09-20T17:46:16.772Z,91452.22
2023-09-20T17:48:46.427Z,91452.22
2023-09-20T17:51:13.160Z,91447.41
2023-09-20T17:53:40.177Z,91444.50
2023-09-20T17:56:06.942Z,91448.13
2023-09-20T17:58:34.434Z,91452.22
2023-09-20T18:01:02.482Z,91453.69
2023-09-20T18:03:33.575Z,91451.53
2023-09-20T18:06:01.121Z,91457.09
2023-09-20T18:08:28.441Z,91454.19
2023-09-20T18:10:56.924Z,91454.19
2023-09-20T18:13:26.376Z,91456.81
2023-09-20T18:15:54.204Z,91462.41
2023-09-20T18:18:21.288Z,91465.06
2023-09-20T18:20:56.081Z,91459.50
2023-09-20T18:23:27.651Z,91466.38
2023-09-20T18:25:57.865Z,91471.25
2023-09-20T18:28:26.942Z,91472.56
2023-09-20T18:30:53.539Z,91473.31
2023-09-20T18:33:21.484Z,91474.66
2023-09-20T18:35:48.944Z,91471.75
2023-09-20T18:38:15.605Z,91474.53
2023-09-20T18:40:42.730Z,91473.06
2023-09-20T18:43:10.842Z,91472.22
2023-09-20T18:45:38.458Z,91474.28
2023-09-20T18:48:05.586Z,91472.84
2023-09-20T18:50:34.047Z,91467.28
2023-09-20T18:53:00.740Z,91474.16
2023-09-20T18:55:27.538Z,91483.97
2023-09-20T18:57:55.887Z,91481.06
2023-09-20T19:00:24.171Z,91481.06
2023-09-20T19:02:51.144Z,91486.66
2023-09-20T19:05:18.490Z,91486.66
2023-09-20T19:07:48.018Z,91490.88
2023-09-20T19:10:15.658Z,91486.66
2023-09-20T19:12:44.177Z,91500.69
2023-09-20T19:15:12.330Z,91493.78
2023-09-20T19:17:41.381Z,91486.88
2023-09-20T19:20:12.888Z,91486.88
2023-09-20T19:22:40.541Z,91488.31
2023-09-20T19:25:11.233Z,91493.91
2023-09-20T19:27:40.600Z,91493.91
2023-09-20T19:30:11.135Z,91496.06
2023-09-20T19:32:39.213Z,91489.78
2023-09-20T19:35:08.416Z,91489.78
2023-09-20T19:37:35.040Z,91485.53
2023-09-20T19:40:06.277Z,91482.75
2023-09-20T19:42:36.271Z,91488.22
2023-09-20T19:45:05.331Z,91482.50
2023-09-20T19:47:32.379Z,91483.97
2023-09-20T19:50:00.419Z,91478.41
2023-09-20T19:52:27.809Z,91483.25
2023-09-20T19:54:55.378Z,91476.22
2023-09-20T19:57:22.958Z,91477.56
2023-09-20T19:59:50.474Z,91482.38
2023-09-20T20:02:17.574Z,91478.16
2023-09-20T20:04:44.275Z,91478.16
2023-09-20T20:07:25.210Z,91477.44
2023-09-20T20:09:54.245Z,91475.25
2023-09-20T20:12:20.799Z,91473.91
2023-09-20T20:14:50.150Z,91478.03
2023-09-20T20:17:17.091Z,91469.69
2023-09-20T20:19:43.766Z,91475.25
2023-09-20T20:22:10.317Z,91475.25
2023-09-20T20:24:37.578Z,91472.34
2023-09-20T20:27:10.132Z,91473.78
2023-09-20T20:29:36.936Z,91469.69
2023-09-20T20:32:03.671Z,91471.63
2023-09-20T20:34:30.268Z,91476.47
2023-09-20T20:36:56.953Z,91472.22
2023-09-20T20:39:23.499Z,91476.47
2023-09-20T20:41:51.769Z,91469.44
2023-09-20T20:44:18.801Z,91471.63
2023-09-20T20:46:45.889Z,91477.91
2023-09-20T20:49:12.435Z,91473.78
2023-09-20T20:51:41.959Z,91466.78
2023-09-20T20:54:13.107Z,91473.78
2023-09-20T20:56:40.532Z,91469.69
2023-09-20T20:59:10.263Z,91472.47
2023-09-20T21:01:37.744Z,91471.84
2023-09-20T21:04:10.679Z,91478.16
2023-09-20T21:06:39.593Z,91472.59
2023-09-20T21:09:07.202Z,91471.13
2023-09-20T21:11:36.897Z,91471.13
2023-09-20T21:14:09.398Z,91471.13
2023-09-20T21:16:36.255Z,91472.47
2023-09-20T21:19:02.864Z,91475.25
2023-09-20T21:21:29.727Z,91471.63
2023-09-20T21:23:56.473Z,91469.56
2023-09-20T21:26:24.494Z,91469.44
2023-09-20T21:28:54.455Z,91469.44
2023-09-20T21:31:21.040Z,91468.00
2023-09-20T21:33:48.348Z,91470.78
2023-09-20T21:36:15.103Z,91468.00
2023-09-20T21:38:42.154Z,91468.00
2023-09-20T21:41:08.970Z,91464.34
2023-09-20T21:43:35.601Z,91470.66
2023-09-20T21:46:02.257Z,91466.41
2023-09-20T21:48:28.936Z,91465.69
2023-09-20T21:50:55.934Z,91465.09
2023-09-20T21:53:22.562Z,91466.53
2023-09-20T21:55:49.443Z,91470.66
2023-09-20T21:58:17.666Z,91465.09
2023-09-20T22:00:44.357Z,91470.66
2023-09-20T22:03:11.072Z,91467.13
2023-09-20T22:05:38.389Z,91469.19
2023-09-20T22:08:08.601Z,91463.63
2023-09-20T22:10:42.106Z,91469.19
2023-09-20T22:13:09.529Z,91467.75
2023-09-20T22:15:36.848Z,91469.19
2023-09-20T22:18:24.655Z,91468.50
2023-09-20T22:20:53.682Z,91462.91
2023-09-20T22:23:20.924Z,91452.38
2023-09-20T22:25:49.406Z,91462.19
2023-09-20T22:28:18.891Z,91454.56
2023-09-20T22:30:45.724Z,91452.50
2023-09-20T22:33:12.548Z,91453.94
2023-09-20T22:35:42.343Z,91440.03
2023-09-20T22:38:10.603Z,91451.16
2023-09-20T22:40:37.461Z,91449.81
2023-09-20T22:43:05.566Z,91448.38
2023-09-20T22:45:35.975Z,91436.50
2023-09-20T22:48:07.016Z,91440.75
2023-09-20T22:50:40.119Z,91439.28
2023-09-20T22:53:09.548Z,91440.03
2023-09-20T22:55:45.231Z,91439.28
2023-09-20T22:58:20.565Z,91441.34
2023-09-20T23:00:48.997Z,91434.34
2023-09-20T23:03:26.084Z,91434.34
2023-09-20T23:05:53.242Z,91437.84
2023-09-20T23:08:20.592Z,91425.97
2023-09-20T23:10:47.908Z,91433.59
2023-09-20T23:13:35.981Z,91430.13
2023-09-20T23:16:07.683Z,91427.31
2023-09-20T23:18:36.317Z,91430.69
2023-09-20T23:21:05.087Z,91429.25
2023-09-20T23:23:31.751Z,91427.22
2023-09-20T23:26:00.187Z,91423.69
2023-09-20T23:28:27.054Z,91425.75
2023-09-20T23:30:59.545Z,91420.91
2023-09-20T23:33:29.226Z,91416.69
2023-09-20T23:35:58.809Z,91413.16
2023-09-20T23:38:29.757Z,91415.22
2023-09-20T23:41:04.311Z,91412.44
2023-09-20T23:43:31.763Z,91413.78
2023-09-20T23:46:05.998Z,91414.47
2023-09-20T23:48:33.402Z,91406.13
2023-09-20T23:51:01.842Z,91414.47
2023-09-20T23:53:31.950Z,91409.66
2023-09-20T23:55:58.600Z,91397.78
2023-09-20T23:58:25.309Z,91403.34
